Catàleg de serveis del Meteocat
Campanya meteocatpedra

Dades de l'estació automàtica Alcarràs

?
?
Resum diari 21:30 TU
Dades diàries de l'estació meteorològica
Temperatura mitjana 8.2 °C
Temperatura màxima 14.6 °C 15:41 TU
Temperatura mínima 4.4 °C 1:19 TU
Humitat relativa mitjana 90%
Precipitació acumulada 4.3 mm
Ratxa màxima del vent (2 m) 13.7 km/h - 295º 15:48 TU

El tram horari està expressat en Temps Universal (TU). Cal sumar una hora en horari d'hivern i dues en horari d'estiu per passar a l'hora oficial.

Alcarràs

Metadades estació meteorol´gica
Municipi Alcarràs
Comarca Segrià
Altitud 122 m
Data alta 31.07.2013
Estat actual Operativa
Dades de període
Període
TU
TM
°C
TX
°C
TN
°C
HRM
%
PPT
mm
VVM (2 m)
km/h
DVM (2 m)
graus
VVX (2 m)
km/h
00:00 - 00:30 5.6 5.9 5.3 100 0.0 1.1 18 5.0
00:30 - 01:00 4.9 5.3 4.5 100 0.0 1.1 315 4.7
01:00 - 01:30 4.6 4.9 4.4 100 0.0 0.4 9 4.7
01:30 - 02:00 4.6 4.8 4.5 100 0.0 0.7 15 4.0
02:00 - 02:30 5.2 5.5 4.7 100 0.0 0.7 32 3.2
02:30 - 03:00 4.9 5.0 4.7 100 0.0 0.7 15 3.2
03:00 - 03:30 4.9 5.0 4.8 100 0.0 0.7 355 4.7
03:30 - 04:00 5.2 5.5 5.0 100 0.0 1.1 15 3.2
04:00 - 04:30 5.5 5.7 5.4 100 0.0 1.1 25 4.0
04:30 - 05:00 5.8 5.9 5.7 100 0.0 2.5 38 6.1
05:00 - 05:30 5.9 5.9 5.8 100 0.0 0.4 35 2.5
05:30 - 06:00 5.9 6.0 5.9 100 0.4 0.7 49 3.6
06:00 - 06:30 6.0 6.1 6.0 100 0.6 0.7 75 2.9
06:30 - 07:00 6.1 6.1 6.0 100 0.5 1.8 61 4.3
07:00 - 07:30 6.2 6.3 6.1 100 0.5 1.8 71 5.8
07:30 - 08:00 6.4 6.7 6.3 100 0.7 1.4 64 4.7
08:00 - 08:30 6.8 6.8 6.7 100 0.8 0.4 29 2.5
08:30 - 09:00 7.0 7.1 6.8 100 0.6 0.0 284 1.8
09:00 - 09:30 7.2 7.3 7.0 100 0.2 0.4 300 2.9
09:30 - 10:00 7.3 7.4 7.2 100 0.0 1.1 156 4.3
10:00 - 10:30 7.5 7.7 7.3 100 0.0 1.1 287 4.0
10:30 - 11:00 8.0 8.5 7.7 100 0.0 1.4 186 4.3
11:00 - 11:30 8.9 9.1 8.4 100 0.0 1.8 204 6.8
11:30 - 12:00 9.6 10.0 9.1 99 0.0 1.4 208 5.0
12:00 - 12:30 10.7 11.5 10.0 95 0.0 1.8 205 6.5
12:30 - 13:00 11.5 12.2 11.0 88 0.0 1.8 211 6.1
13:00 - 13:30 12.5 12.9 11.8 82 0.0 2.2 224 7.2
13:30 - 14:00 13.1 13.6 11.9 78 0.0 2.2 187 7.2
14:00 - 14:30 13.8 14.1 13.5 75 0.0 2.2 198 6.8
14:30 - 15:00 14.2 14.4 14.1 76 0.0 1.4 203 5.8
15:00 - 15:30 14.3 14.5 14.0 74 0.0 1.1 271 5.4
15:30 - 16:00 14.2 14.6 13.0 57 0.0 3.2 297 13.7
16:00 - 16:30 12.5 12.9 11.9 64 0.0 1.8 296 10.4
16:30 - 17:00 11.5 12.7 10.5 67 0.0 1.8 196 12.2
17:00 - 17:30 10.4 10.9 10.0 69 0.0 1.8 159 6.1
17:30 - 18:00 9.9 10.4 9.5 69 0.0 1.1 168 4.7
18:00 - 18:30 9.2 9.4 8.8 71 0.0 1.1 167 4.7
18:30 - 19:00 9.3 9.6 9.0 69 0.0 1.1 193 7.2
19:00 - 19:30 9.1 9.7 8.4 70 0.0 1.1 277 5.8
19:30 - 20:00 8.0 8.7 7.0 79 0.0 2.2 183 9.0
20:00 - 20:30 7.3 8.1 6.8 82 0.0 0.7 144 6.5
20:30 - 21:00 6.2 6.7 5.7 95 0.0 0.4 98 2.5
21:00 - 21:30 6.1 6.5 5.7 99 0.0 1.1 257 2.9
21:30 - 22:00 5.5 5.6 5.1 100 0.0 0.4 249 2.5
22:00 - 22:30 (s/d) (s/d) (s/d) (s/d) (s/d) (s/d) (s/d) (s/d)

Les dades en taronja només han passat un control de qualitat automàtic. Resta pendent la seva validació definitiva.